Latest Weather Observations for Mortlake

IDV60801

Issued at 7:32 pm EST Saturday 2 July 2016 (issued every 30 minutes, with the page automatically refreshed every 10 minutes)

About weather observations | Map of weather stations | Latest weather observations for VIC | Other Formats
Station Details ID: 090176 Name: MORTLAKE RACECOURSE Lat: -38.07 Lon: 142.77 Height: 130.0 m
Data from the previous 72 hours. | See also: Recent months at Mortlake
Date/Time
EST
Temp
°C
App
Temp
°C
Dew
Point
°C
Rel
Hum
%
Delta-T
°C
Wind Press
QNH
hPa
Press
MSL
hPa
Rain since
9am
mm
Dir  Spd
km/h
Gust
km/h
Spd
kts
Gust
kts
02/07:30pm 9.2 6.7 8.3 94 0.4 NW 11 13 6 7 1025.0 1025.3 0.0
02/07:00pm 10.5 8.2 8.9 90 0.8 NW 11 15 6 8 1024.9 1025.2 0.0
02/06:30pm 11.6 10.0 10.3 92 0.7 WNW 9 13 5 7 1024.7 1024.9 0.0
02/06:00pm 11.0 9.6 9.6 91 0.7 WNW 7 9 4 5 1024.6 1024.8 0.0
02/05:30pm 11.6 10.4 9.5 87 1.1 WNW 6 7 3 4 1024.3 1024.5 0.0
02/05:00pm 12.4 10.3 9.6 83 1.4 WNW 11 13 6 7 1024.2 1024.4 0.0
02/04:30pm 12.7 10.6 9.9 83 1.4 WNW 11 15 6 8 1024.3 1024.5 0.0
02/04:00pm 12.9 10.0 9.5 80 1.7 WNW 15 20 8 11 1024.2 1024.4 0.0
02/03:30pm 13.6 11.1 9.8 78 2.0 W 13 19 7 10 1024.3 1024.5 0.0
02/03:00pm 13.4 10.5 9.8 79 1.9 W 15 22 8 12 1024.2 1024.4 0.0
02/02:30pm 13.1 9.1 9.0 76 2.1 WNW 20 30 11 16 1024.1 1024.3 0.0
02/02:00pm 13.6 10.1 8.9 73 2.4 WNW 17 22 9 12 1024.1 1024.3 0.0
02/01:30pm 13.4 10.0 9.3 76 2.1 WNW 17 24 9 13 1024.3 1024.5 0.0
02/01:00pm 13.4 9.9 10.2 81 1.7 W 19 26 10 14 1024.7 1024.9 0.0
02/12:30pm 13.0 9.8 9.8 81 1.6 W 17 26 9 14 1025.1 1025.4 0.0
02/12:00pm 12.7 9.2 10.9 89 0.9 WNW 20 26 11 14 1025.3 1025.6 0.0
02/11:30am 12.2 8.6 10.6 90 0.8 WNW 20 28 11 15 1025.7 1026.0 0.0
02/11:00am 12.5 8.1 10.4 87 1.1 WNW 24 35 13 19 1025.7 1026.0 0.0
02/10:30am 11.6 8.4 11.1 97 0.3 WNW 19 28 10 15 1025.7 1026.0 0.0
02/10:00am 10.8 7.8 10.8 100 0.0 WNW 17 24 9 13 1025.5 1025.8 0.0
02/09:30am 10.5 7.5 10.5 100 0.0 WNW 17 22 9 12 1025.3 1025.6 0.0
02/09:00am 9.9 7.5 9.9 100 0.0 WNW 13 19 7 10 1025.2 1025.5 0.6
02/08:30am 9.6 7.1 9.6 100 0.0 NW 13 20 7 11 1024.8 1025.0 0.6
02/08:00am 9.2 6.2 9.2 100 0.0 NW 15 19 8 10 1024.6 1024.8 0.6
02/07:30am 8.7 5.2 8.7 100 0.0 NW 17 22 9 12 1024.2 1024.4 0.6
02/07:00am 8.3 5.4 8.3 100 0.0 NW 13 19 7 10 1023.9 1024.1 0.6
02/06:30am 6.9 4.1 6.9 100 0.0 NW 11 13 6 7 1023.5 1023.7 0.6
02/06:00am 6.6 3.7 6.6 100 0.0 NW 11 13 6 7 1023.4 1023.6 0.6
02/05:30am 8.2 5.7 8.2 100 0.0 NW 11 15 6 8 1023.1 1023.3 0.6
02/05:00am 9.0 6.7 9.0 100 0.0 NW 11 15 6 8 1023.0 1023.2 0.6
02/04:30am 9.4 6.4 9.4 100 0.0 NW 15 22 8 12 1023.0 1023.2 0.6
02/04:00am 10.2 6.1 10.2 100 0.0 WNW 22 32 12 17 1022.8 1023.0 0.6
02/03:30am 10.0 7.2 10.0 100 0.0 WNW 15 24 8 13 1022.9 1023.1 0.6
02/03:00am 10.0 7.2 10.0 100 0.0 WNW 15 17 8 9 1022.8 1023.0 0.6
02/02:30am 10.3 6.8 10.3 100 0.0 WNW 19 30 10 16 1022.8 1023.0 0.6
02/02:00am 10.0 7.6 10.0 100 0.0 NW 13 19 7 10 1022.7 1022.9 0.2
02/01:30am 8.8 6.4 8.8 100 0.0 NW 11 13 6 7 1022.7 1022.9 0.2
02/01:00am 8.8 6.4 8.8 100 0.0 NW 11 15 6 8 1022.7 1022.9 0.2
02/12:30am 10.2 7.5 10.2 100 0.0 WNW 15 24 8 13 1022.9 1023.1 0.2
02/12:00am 10.4 7.3 10.4 100 0.0 NW 17 20 9 11 1022.9 1023.1 0.2
 
Date/Time
EST
Temp
°C
App
Temp
°C
Dew
Point
°C
Rel
Hum
%
Delta-T
°C
Wind Press
QNH
hPa
Press
MSL
hPa
Rain since
9am
mm
Dir  Spd
km/h
Gust
km/h
Spd
kts
Gust
kts
01/11:30pm 10.2 7.5 10.2 100 0.0 NW 15 20 8 11 1022.9 1023.1 0.2
01/11:00pm 10.2 7.5 10.2 100 0.0 NW 15 20 8 11 1022.8 1023.0 0.2
01/10:30pm 9.9 7.1 9.9 100 0.0 NW 15 19 8 10 1022.8 1023.0 0.2
01/10:00pm 10.1 6.9 10.1 100 0.0 NW 17 24 9 13 1022.8 1023.0 0.2
01/09:30pm 10.0 7.2 10.0 100 0.0 NW 15 24 8 13 1022.6 1022.8 0.2
01/09:00pm 10.3 6.8 10.3 100 0.0 NW 19 32 10 17 1022.8 1023.0 0.2
01/08:30pm 10.2 7.5 10.2 100 0.0 NW 15 20 8 11 1022.6 1022.8 0.2
01/08:00pm 9.9 7.1 9.9 100 0.0 NW 15 19 8 10 1022.4 1022.6 0.2
01/07:30pm 9.7 6.8 9.7 100 0.0 NW 15 17 8 9 1022.3 1022.5 0.2
01/07:00pm 9.4 6.8 9.4 100 0.0 NW 13 15 7 8 1022.2 1022.4 0.2
01/06:30pm 8.9 6.6 8.9 100 0.0 NNW 11 15 6 8 1021.7 1022.0 0.2
01/06:00pm 8.9 6.6 8.9 100 0.0 NW 11 13 6 7 1021.4 1021.7 0.2
01/05:30pm 10.0 8.0 10.0 100 0.0 NW 11 13 6 7 1021.3 1021.6 0.2
01/05:00pm 10.3 7.5 10.1 99 0.1 NW 15 20 8 11 1021.3 1021.6 0.2
01/04:30pm 10.5 6.7 9.7 95 0.4 WNW 20 28 11 15 1021.1 1021.4 0.2
01/04:00pm 10.7 8.0 10.5 99 0.1 WNW 15 20 8 11 1020.9 1021.2 0.2
01/03:30pm 10.4 6.7 9.3 93 0.6 W 19 33 10 18 1020.9 1021.2 0.0
01/03:00pm 11.6 8.2 9.3 86 1.2 WNW 17 22 9 12 1020.7 1021.0 0.0
01/02:30pm 12.4 9.9 9.6 83 1.4 WNW 13 19 7 10 1020.4 1020.7 0.0
01/02:00pm 11.8 7.7 8.6 81 1.6 WNW 20 26 11 14 1020.5 1020.8 0.0
01/01:30pm 11.3 7.4 8.7 84 1.3 WNW 19 28 10 15 1020.6 1020.9 0.0
01/01:00pm 11.4 7.7 8.1 80 1.6 W 17 24 9 13 1020.7 1021.0 0.0
01/12:30pm 11.0 7.0 8.1 82 1.4 WNW 19 24 10 13 1020.9 1021.2 0.0
01/12:00pm 11.0 7.2 7.5 79 1.7 WNW 17 26 9 14 1021.1 1021.4 0.0
01/11:30am 10.5 6.2 7.2 80 1.6 W 19 28 10 15 1021.4 1021.7 0.0
01/11:00am 10.5 7.5 7.6 82 1.4 WNW 13 17 7 9 1021.4 1021.7 0.0
01/10:30am 9.7 6.9 7.0 83 1.3 W 11 17 6 9 1021.3 1021.6 0.0
01/10:00am 9.4 6.2 6.7 83 1.3 WNW 13 19 7 10 1021.0 1021.3 0.0
01/09:30am 8.7 6.1 6.3 85 1.1 WNW 9 15 5 8 1020.4 1020.6 0.0
01/09:00am 8.4 5.8 6.0 85 1.1 WNW 9 13 5 7 1020.1 1020.3 12.2
01/08:30am 8.1 5.3 5.0 81 1.4 W 9 15 5 8 1019.8 1020.0 12.2
01/08:00am 8.0 5.3 5.6 85 1.1 W 9 13 5 7 1019.4 1019.6 12.2
01/07:30am 8.4 5.9 6.5 88 0.9 W 9 13 5 7 1019.1 1019.3 12.2
01/07:00am 8.3 5.7 7.9 97 0.2 W 11 17 6 9 1018.5 1018.7 12.2
01/06:30am 8.3 6.2 8.3 100 0.0 WSW 9 13 5 7 1018.1 1018.3 12.2
01/06:00am 8.3 6.2 8.3 100 0.0 W 9 17 5 9 1017.7 1017.9 12.2
01/05:30am 8.1 6.0 8.1 100 0.0 SW 9 13 5 7 1017.1 1017.3 12.2
01/05:00am 8.5 6.1 8.5 100 0.0 WSW 11 19 6 10 1016.6 1016.8 12.2
01/04:30am 9.0 3.7 8.6 97 0.2 WSW 26 37 14 20 1016.1 1016.3 12.2
01/04:00am 9.0 5.9 9.0 100 0.0 WSW 15 22 8 12 1015.8 1016.0 11.8
01/03:30am 8.7 5.2 8.7 100 0.0 SW 17 22 9 12 1015.2 1015.4 11.8
01/03:00am 8.9 4.9 8.9 100 0.0 SW 20 28 11 15 1014.8 1015.0 11.8
01/02:30am 8.5 5.3 8.5 100 0.0 W 15 20 8 11 1014.4 1014.5 11.2
01/02:00am 8.0 5.8 8.0 100 0.0 WSW 9 13 5 7 1013.7 1013.9 10.8
01/01:30am 8.7 4.8 8.7 100 0.0 SW 19 24 10 13 1013.1 1013.3 10.8
01/01:00am 8.4 5.9 8.4 100 0.0 WSW 11 15 6 8 1012.7 1012.9 10.4
01/12:30am 8.7 5.5 8.6 99 0.0 SW 15 20 8 11 1012.1 1012.3 10.4
01/12:00am 8.9 5.0 8.6 98 0.1 SW 19 28 10 15 1011.5 1011.7 10.4
 
Date/Time
EST
Temp
°C
App
Temp
°C
Dew
Point
°C
Rel
Hum
%
Delta-T
°C
Wind Press
QNH
hPa
Press
MSL
hPa
Rain since
9am
mm
Dir  Spd
km/h
Gust
km/h
Spd
kts
Gust
kts
30/11:30pm 8.8 4.6 8.4 97 0.2 SW 20 26 11 14 1011.0 1011.2 10.4
30/11:00pm 8.7 4.2 8.7 100 0.0 SW 22 30 12 16 1010.3 1010.5 10.4
30/10:30pm 8.1 3.8 6.9 92 0.6 SW 19 30 10 16 1009.5 1009.7 10.4
30/10:00pm 8.6 3.9 7.8 95 0.4 SW 22 30 12 16 1008.6 1008.8 10.4
30/09:30pm 9.2 2.8 8.7 97 0.2 SW 32 43 17 23 1007.8 1007.9 10.4
30/09:13pm 9.0 2.7 9.0 100 0.0 WSW 32 52 17 28 1007.2 1007.3 10.4
30/09:00pm 8.9 4.1 8.9 100 0.0 W 24 41 13 22 1006.7 1006.8 10.4
30/08:30pm 7.2 2.8 7.2 100 0.0 NW 20 28 11 15 1006.0 1006.1 10.2
30/08:00pm 7.2 0.9 7.2 100 0.0 NW 30 43 16 23 1006.0 1006.1 9.0
30/07:36pm 7.0 0.5 6.7 98 0.1 NW 30 54 16 29 1005.5 1005.7 8.2
30/07:30pm 6.9 0.0 6.6 98 0.1 NW 32 43 17 23 1005.7 1005.9 8.2
30/07:00pm 7.0 0.4 5.9 93 0.5 NW 30 43 16 23 1005.6 1005.8 8.0
30/06:30pm 7.3 0.5 5.0 85 1.0 NW 30 43 16 23 1005.7 1005.9 7.0
30/06:00pm 7.2 1.5 4.7 84 1.1 NW 24 33 13 18 1005.6 1005.8 7.0
30/05:30pm 7.8 2.2 5.3 84 1.1 NW 24 39 13 21 1005.3 1005.5 7.0
30/05:00pm 8.1 2.1 5.4 83 1.2 WNW 26 33 14 18 1005.3 1005.5 7.0
30/04:30pm 8.2 3.2 6.5 89 0.8 WNW 22 30 12 16 1005.3 1005.5 7.0
30/04:00pm 7.8 2.9 6.7 93 0.5 WNW 22 28 12 15 1005.1 1005.3 7.0
30/03:43pm 7.8 0.8 5.9 88 0.9 W 32 50 17 27 1005.3 1005.5 6.8
30/03:30pm 9.0 3.3 6.6 85 1.1 WNW 26 43 14 23 1005.2 1005.4 6.2
30/03:00pm 9.5 3.3 6.0 79 1.6 WNW 28 44 15 24 1004.6 1004.8 5.4
30/02:30pm 8.8 4.4 7.6 92 0.6 NW 20 28 11 15 1004.2 1004.4 5.4
30/02:00pm 8.0 2.9 7.6 97 0.2 WNW 24 35 13 19 1004.6 1004.8 5.4
30/01:38pm 8.1 2.2 7.7 97 0.2 WNW 28 46 15 25 1004.9 1005.1 5.0
30/01:30pm 8.3 1.1 7.7 96 0.3 WNW 35 48 19 26 1004.9 1005.1 4.8
30/01:20pm 8.7 2.3 8.4 98 0.1 NW 32 52 17 28 1004.6 1004.8 4.6
30/01:00pm 9.5 4.3 8.9 96 0.3 NNW 26 35 14 19 1004.0 1004.2 3.4
30/12:30pm 9.9 4.4 9.3 96 0.3 NNW 28 39 15 21 1004.5 1004.7 3.2
30/12:00pm 9.5 4.5 9.4 99 0.1 N 26 35 14 19 1005.0 1005.2 3.2
30/11:30am 8.1 2.0 8.1 100 0.0 N 30 41 16 22 1005.4 1005.6 2.8
30/11:00am 7.8 1.0 7.8 100 0.0 N 33 43 18 23 1006.1 1006.2 2.6
30/10:30am 8.0 2.2 8.0 100 0.0 N 28 39 15 21 1006.8 1006.9 1.0
30/10:00am 8.0 3.0 8.0 100 0.0 N 24 33 13 18 1007.3 1007.4 0.6
30/09:30am 8.2 3.2 7.9 98 0.1 NNW 24 33 13 18 1007.5 1007.6 0.2
30/09:00am 8.0 2.0 7.2 95 0.4 N 28 37 15 20 1007.3 1007.4 1.8
30/08:30am 7.6 1.7 7.6 100 0.0 N 28 35 15 19 1007.6 1007.7 1.8
30/08:00am 7.8 1.5 7.4 97 0.2 N 30 39 16 21 1007.5 1007.6 1.2
30/07:30am 7.9 1.5 7.1 95 0.4 N 30 39 16 21 1007.6 1007.7 0.8
30/07:00am 7.9 1.5 7.0 94 0.4 N 30 41 16 22 1007.9 1008.0 0.6
30/06:30am 8.0 1.2 7.1 94 0.4 N 32 44 17 24 1008.0 1008.1 0.6
30/06:00am 8.0 1.0 6.8 92 0.6 N 33 46 18 25 1008.2 1008.4 0.4
30/05:30am 8.5 1.3 6.1 85 1.1 N 33 50 18 27 1008.5 1008.7 0.0
30/05:00am 8.6 2.8 6.1 84 1.2 N 26 37 14 20 1008.9 1009.1 0.0
30/04:30am 8.7 2.5 6.2 84 1.2 N 28 43 15 23 1009.4 1009.6 0.0
30/04:00am 9.4 3.0 5.4 76 1.8 N 28 43 15 23 1010.2 1010.4 0.0
30/03:30am 9.1 2.3 5.3 77 1.7 N 30 41 16 22 1010.6 1010.8 0.0
30/03:00am 9.2 2.1 5.4 77 1.7 N 32 39 17 21 1011.3 1011.5 0.0
30/02:30am 9.2 1.5 5.2 76 1.8 N 35 48 19 26 1011.5 1011.7 0.0
30/02:00am 9.4 3.0 5.2 75 1.9 N 28 44 15 24 1011.9 1012.1 0.0
30/01:30am 9.5 1.7 5.1 74 2.0 N 35 46 19 25 1012.3 1012.5 0.0
30/01:00am 9.3 1.9 4.9 74 2.0 N 33 44 18 24 1012.9 1013.1 0.0
30/12:30am 9.6 2.8 5.0 73 2.1 N 30 46 16 25 1013.6 1013.8 0.0
30/12:07am 9.7 2.3 4.9 72 2.2 N 33 54 18 29 1014.2 1014.3 0.0
30/12:00am 9.9 2.5 4.9 71 2.3 N 33 44 18 24 1014.2 1014.3 0.0
 
Date/Time
EST
Temp
°C
App
Temp
°C
Dew
Point
°C
Rel
Hum
%
Delta-T
°C
Wind Press
QNH
hPa
Press
MSL
hPa
Rain since
9am
mm
Dir  Spd
km/h
Gust
km/h
Spd
kts
Gust
kts
29/11:30pm 9.8 3.0 5.2 73 2.1 N 30 43 16 23 1014.5 1014.7 0.0
29/11:00pm 10.1 3.3 5.3 72 2.2 N 30 46 16 25 1014.8 1015.0 0.0
29/10:30pm 10.3 4.0 5.5 72 2.2 N 28 39 15 21 1015.5 1015.7 0.0
29/10:00pm 10.3 4.3 5.5 72 2.2 N 26 37 14 20 1016.4 1016.6 0.0
29/09:30pm 10.2 4.3 5.6 73 2.1 N 26 39 14 21 1016.7 1016.9 0.0
29/09:00pm 10.2 4.3 5.6 73 2.1 N 26 37 14 20 1017.1 1017.3 0.0
29/08:30pm 9.7 5.5 5.9 77 1.8 N 17 26 9 14 1017.5 1017.7 0.0
29/08:00pm 9.8 5.0 5.8 76 1.8 N 20 30 11 16 1017.6 1017.8 0.0

Other Formats:

Comma delimited format used in spreadsheet applications
http://www.bom.gov.au/fwo/IDV60801/IDV60801.94840.axf

JavaScript Object Notation format (JSON) in row-major order
http://www.bom.gov.au/fwo/IDV60801/IDV60801.94840.json